Time;durP1;ratioP1;P1;durP2;ratioP2;P2;SDS_P1;SDS_P2;PMS_P1;PMS_P2;Temp;Humidity;BMP_temperature;BMP_pressure;BME280_temperature;BME280_humidity;BME280_pressure;Samples;Min_cycle;Max_cycle;Signal;HPM_P1;HPM_P2
2022/05/27 00:02:12;;;;;;;;;1.50;1.50;;;;;15.63;100.00;102188.19;6284064;22;45250;-82
2022/05/27 00:04:37;;;;;;;;;2.00;0.25;;;;;15.59;100.00;102180.44;6310208;22;44676;-84
2022/05/27 00:07:03;;;;;;;;;1.00;1.00;;;;;15.61;100.00;102175.81;6308766;22;45387;-86
2022/05/27 00:09:29;;;;;;;;;0.60;0.00;;;;;15.60;100.00;102163.38;6315207;22;45329;-82
2022/05/27 00:11:55;;;;;;;;;2.00;2.00;;;;;15.48;100.00;102170.41;6323329;22;44820;-83
2022/05/27 00:14:20;;;;;;;;;1.50;1.50;;;;;15.40;100.00;102175.41;6316056;22;44829;-82
2022/05/27 00:16:46;;;;;;;;;2.25;1.00;;;;;15.42;100.00;102173.47;6282484;22;47266;-85
2022/05/27 00:19:12;;;;;;;;;1.00;1.00;;;;;15.46;100.00;102171.47;6309915;22;44855;-83
2022/05/27 00:21:37;;;;;;;;;2.00;1.00;;;;;15.52;100.00;102171.06;6312497;22;45199;-84
2022/05/27 00:24:03;;;;;;;;;1.00;1.00;;;;;15.55;100.00;102176.22;6314464;22;44932;-83
2022/05/27 00:26:29;;;;;;;;;2.25;2.00;;;;;15.50;100.00;102160.44;6312898;22;45308;-84
2022/05/27 00:28:54;;;;;;;;;1.00;1.00;;;;;15.52;100.00;102158.56;6311320;22;45188;-83
2022/05/27 00:31:20;;;;;;;;;1.00;1.00;;;;;15.46;100.00;102164.28;6316691;22;45178;-82
2022/05/27 00:33:47;;;;;;;;;1.00;1.00;;;;;15.46;100.00;102155.38;6316568;22;45100;-83
2022/05/27 00:36:14;;;;;;;;;1.00;1.00;;;;;15.55;100.00;102158.34;6308582;22;45133;-83
2022/05/27 00:38:41;;;;;;;;;2.00;2.00;;;;;15.54;100.00;102155.75;6310473;22;44759;-83
2022/05/27 00:41:07;;;;;;;;;3.80;0.80;;;;;15.41;100.00;102147.66;6314663;22;44768;-81
2022/05/27 00:43:32;;;;;;;;;0.20;0.00;;;;;15.46;100.00;102152.72;6308936;22;44790;-83
2022/05/27 00:46:02;;;;;;;;;2.00;1.00;;;;;15.46;100.00;102140.19;6309302;22;44965;-83
2022/05/27 00:48:28;;;;;;;;;2.20;1.60;;;;;15.42;100.00;102131.50;6308482;22;44774;-84
2022/05/27 00:50:57;;;;;;;;;1.00;1.00;;;;;15.37;100.00;102130.06;6281741;22;45279;-82
2022/05/27 00:53:32;;;;;;;;;0.40;0.20;;;;;15.27;100.00;102143.19;6281160;22;44875;-84
2022/05/27 00:56:00;;;;;;;;;2.60;0.60;;;;;15.20;100.00;102138.34;6305301;22;47711;-83
2022/05/27 00:58:33;;;;;;;;;1.00;1.00;;;;;15.17;100.00;102137.56;6310079;22;45166;-80
2022/05/27 01:01:00;;;;;;;;;3.00;1.60;;;;;15.15;100.00;102146.66;6308285;22;45234;-82
2022/05/27 01:03:27;;;;;;;;;1.60;1.60;;;;;15.09;100.00;102139.03;6313051;22;45084;-82
2022/05/27 01:05:53;;;;;;;;;3.60;2.00;;;;;15.06;100.00;102142.75;6312114;22;45321;-82
2022/05/27 01:08:23;;;;;;;;;1.00;1.00;;;;;15.04;100.00;102142.00;6318652;22;44760;-83
2022/05/27 01:11:13;;;;;;;;;1.00;1.00;;;;;15.08;100.00;102140.81;6319545;22;44604;-84
2022/05/27 01:14:15;;;;;;;;;1.00;1.00;;;;;15.05;100.00;102134.81;6315073;22;44809;-82
2022/05/27 01:16:57;;;;;;;;;2.20;1.00;;;;;15.05;100.00;102132.16;6312775;22;45084;-82
2022/05/27 01:22:46;;;;;;;;;1.20;1.20;;;;;14.95;100.00;102139.91;6312719;22;44677;-84
2022/05/27 01:25:18;;;;;;;;;1.40;1.40;;;;;14.94;100.00;102137.28;6315295;22;44860;-83
2022/05/27 01:28:04;;;;;;;;;3.00;1.00;;;;;14.91;100.00;102139.22;6316823;22;45244;-82
2022/05/27 01:30:44;;;;;;;;;0.40;0.40;;;;;14.93;100.00;102136.44;6284712;22;44881;-83
2022/05/27 01:33:34;;;;;;;;;1.80;1.80;;;;;14.92;100.00;102132.03;6314371;22;44766;-83
2022/05/27 01:36:10;;;;;;;;;1.80;1.80;;;;;14.84;100.00;102129.88;6321061;22;45341;-84
2022/05/27 01:38:51;;;;;;;;;2.40;1.60;;;;;14.82;100.00;102137.13;6290898;22;45187;-84
2022/05/27 01:41:27;;;;;;;;;2.20;2.20;;;;;14.80;100.00;102119.47;6314054;22;45174;-82
2022/05/27 01:44:00;;;;;;;;;1.00;1.00;;;;;14.78;100.00;102121.34;6315429;22;44637;-84
2022/05/27 01:46:33;;;;;;;;;0.80;0.80;;;;;14.77;100.00;102120.50;6312586;22;44864;-83
2022/05/27 01:49:07;;;;;;;;;2.00;2.00;;;;;14.75;100.00;102127.78;6308401;22;45227;-83
2022/05/27 01:51:45;;;;;;;;;2.60;2.00;;;;;14.71;100.00;102120.88;6312162;22;45227;-83
2022/05/27 01:54:42;;;;;;;;;2.60;1.00;;;;;14.72;100.00;102135.97;6306449;22;45092;-83
2022/05/27 01:57:20;;;;;;;;;6.60;2.00;;;;;14.70;100.00;102126.31;6307016;22;44655;-82
2022/05/27 02:00:01;;;;;;;;;2.20;1.20;;;;;14.66;100.00;102125.66;6306590;22;45371;-83
2022/05/27 02:02:29;;;;;;;;;7.00;4.00;;;;;14.63;100.00;102125.84;6310155;22;45367;-82
2022/05/27 02:05:00;;;;;;;;;5.60;2.60;;;;;14.61;100.00;102131.28;6313176;22;44712;-84
2022/05/27 02:07:37;;;;;;;;;5.50;2.75;;;;;14.63;100.00;102133.88;6315714;22;45219;-83
2022/05/27 02:10:17;;;;;;;;;2.80;2.80;;;;;14.61;100.00;102127.75;6310610;22;45443;-83
2022/05/27 02:12:54;;;;;;;;;4.20;1.60;;;;;14.59;100.00;102132.31;6309418;22;44787;-84
2022/05/27 02:15:27;;;;;;;;;1.80;1.00;;;;;14.60;100.00;102126.91;6308404;22;45203;-83
2022/05/27 02:17:59;;;;;;;;;2.00;2.00;;;;;14.61;100.00;102130.44;6279814;22;45393;-81
2022/05/27 02:20:32;;;;;;;;;1.40;1.40;;;;;14.64;100.00;102124.88;6309383;22;45527;-84
2022/05/27 02:23:12;;;;;;;;;3.40;2.60;;;;;14.59;100.00;102133.19;6311128;22;45124;-82
2022/05/27 02:25:43;;;;;;;;;3.40;2.80;;;;;14.54;100.00;102131.75;6314314;22;44776;-82
2022/05/27 02:28:14;;;;;;;;;3.00;3.00;;;;;14.51;100.00;102130.13;6318819;22;45258;-83
2022/05/27 02:30:45;;;;;;;;;3.00;3.00;;;;;14.55;100.00;102126.34;6319450;22;45380;-79
2022/05/27 02:36:07;;;;;;;;;1.00;1.00;;;;;14.62;100.00;102124.13;6313214;22;45277;-82
2022/05/27 02:38:33;;;;;;;;;2.20;2.20;;;;;14.64;100.00;102128.41;6315641;22;45351;-81
2022/05/27 02:41:10;;;;;;;;;2.00;2.00;;;;;14.63;100.00;102128.50;6317189;22;45396;-83
2022/05/27 02:43:53;;;;;;;;;4.00;2.60;;;;;14.60;100.00;102129.59;6323038;22;44783;-81
2022/05/27 02:46:38;;;;;;;;;2.20;2.20;;;;;14.63;100.00;102132.03;6315463;22;44609;-81
2022/05/27 02:49:15;;;;;;;;;1.00;1.00;;;;;14.56;100.00;102129.88;6310076;22;44724;-83
2022/05/27 02:52:07;;;;;;;;;3.40;3.40;;;;;14.55;100.00;102130.78;6310834;22;44981;-81
2022/05/27 02:54:43;;;;;;;;;2.20;1.80;;;;;14.63;100.00;102131.19;6310169;22;44689;-83
2022/05/27 02:57:24;;;;;;;;;5.20;2.00;;;;;14.63;100.00;102134.72;6311657;22;45183;-83
2022/05/27 02:59:52;;;;;;;;;3.80;3.80;;;;;14.45;100.00;102125.09;6317650;22;44813;-82
2022/05/27 03:02:18;;;;;;;;;4.20;2.00;;;;;14.48;100.00;102130.31;6318265;22;45193;-84
2022/05/27 03:04:50;;;;;;;;;2.00;2.00;;;;;14.49;100.00;102132.03;6312939;22;44617;-83
2022/05/27 03:07:35;;;;;;;;;2.00;2.00;;;;;14.47;100.00;102139.25;6287778;22;45319;-83
2022/05/27 03:10:09;;;;;;;;;3.20;1.60;;;;;14.38;100.00;102132.66;6310476;22;44783;-83
2022/05/27 03:13:10;;;;;;;;;4.00;2.00;;;;;14.33;100.00;102136.56;6309490;22;45216;-83
2022/05/27 03:16:04;;;;;;;;;5.00;3.00;;;;;14.28;100.00;102136.00;6156482;23;45497;-84
2022/05/27 03:18:29;;;;;;;;;2.60;2.00;;;;;14.28;100.00;102133.31;6155063;23;45217;-82
2022/05/27 03:21:10;;;;;;;;;2.75;2.00;;;;;14.25;100.00;102137.00;6157202;23;45375;-83
2022/05/27 03:23:50;;;;;;;;;6.80;3.80;;;;;14.24;100.00;102127.28;6157552;23;45191;-83
2022/05/27 03:26:15;;;;;;;;;4.00;3.40;;;;;14.18;100.00;102142.84;6157761;23;45267;-83
2022/05/27 03:29:05;;;;;;;;;4.00;2.50;;;;;14.16;100.00;102142.91;6162299;23;45340;-83
2022/05/27 03:31:40;;;;;;;;;7.00;2.80;;;;;14.14;100.00;102143.00;6155636;23;44882;-83
2022/05/27 03:34:18;;;;;;;;;6.80;2.40;;;;;14.16;100.00;102126.88;6152904;23;46199;-83
2022/05/27 03:37:10;;;;;;;;;8.00;2.60;;;;;14.09;100.00;102128.19;6155067;23;44719;-84
2022/05/27 03:39:48;;;;;;;;;6.00;3.40;;;;;14.11;100.00;102134.31;6121571;23;45418;-83
2022/05/27 03:42:15;;;;;;;;;5.40;5.40;;;;;14.15;100.00;102128.69;6152993;23;45224;-83
2022/05/27 03:44:50;;;;;;;;;2.00;2.00;;;;;14.06;100.00;102126.56;6153861;23;45442;-85
2022/05/27 03:47:16;;;;;;;;;5.60;5.60;;;;;13.99;100.00;102137.72;6158401;23;45230;-83
2022/05/27 03:49:41;;;;;;;;;6.50;6.00;;;;;14.00;100.00;102120.72;6137146;23;44886;-83
2022/05/27 03:52:12;;;;;;;;;2.00;2.00;;;;;14.04;100.00;102133.81;6230324;22;45282;-84
2022/05/27 03:54:37;;;;;;;;;2.40;2.40;;;;;14.13;100.00;102121.72;6312900;22;45157;-81
2022/05/27 03:57:03;;;;;;;;;5.25;5.25;;;;;14.08;100.00;102135.38;6287430;22;44700;-84
2022/05/27 03:59:29;;;;;;;;;3.20;3.20;;;;;14.17;100.00;102133.06;6322730;22;44618;-83
2022/05/27 04:01:56;;;;;;;;;4.00;4.00;;;;;14.23;100.00;102136.25;6310866;22;44816;-84
2022/05/27 04:04:26;;;;;;;;;6.60;3.00;;;;;14.12;100.00;102144.06;6307347;22;45234;-84
2022/05/27 04:06:52;;;;;;;;;8.60;4.00;;;;;14.10;100.00;102140.59;6280664;22;45222;-82
2022/05/27 04:09:19;;;;;;;;;4.20;4.00;;;;;14.14;100.00;102129.66;6311974;22;44692;-84
2022/05/27 04:11:45;;;;;;;;;3.60;2.80;;;;;14.13;100.00;102129.75;6307828;22;44961;-84
2022/05/27 04:14:11;;;;;;;;;8.00;6.25;;;;;14.11;100.00;102126.28;6308521;22;44875;-84
2022/05/27 04:16:37;;;;;;;;;2.40;2.20;;;;;14.01;100.00;102138.47;6306240;22;44777;-85
2022/05/27 04:19:03;;;;;;;;;7.50;6.00;;;;;14.03;100.00;102141.94;6305773;22;45187;-83
2022/05/27 04:21:29;;;;;;;;;4.80;4.80;;;;;14.00;100.00;102145.63;6308439;22;45428;-83
2022/05/27 04:23:55;;;;;;;;;6.00;3.00;;;;;14.08;100.00;102139.84;6310155;22;45116;-83
2022/05/27 04:26:21;;;;;;;;;8.00;8.00;;;;;14.06;100.00;102147.06;6282951;22;45012;-82
2022/05/27 04:28:47;;;;;;;;;6.20;5.80;;;;;14.13;100.00;102146.63;6310330;22;45327;-83
2022/05/27 04:31:13;;;;;;;;;7.00;7.00;;;;;14.15;100.00;102150.06;6309669;22;44796;-82
2022/05/27 04:33:39;;;;;;;;;6.50;4.00;;;;;14.11;100.00;102153.88;6283981;22;45146;-84
2022/05/27 04:36:06;;;;;;;;;7.50;7.50;;;;;14.10;100.00;102160.16;6311862;22;44765;-82
2022/05/27 04:38:33;;;;;;;;;8.00;4.80;;;;;14.19;100.00;102148.09;6287383;22;45336;-84
2022/05/27 04:40:58;;;;;;;;;7.75;7.75;;;;;14.28;100.00;102149.34;6308690;22;45208;-85
2022/05/27 04:43:24;;;;;;;;;10.50;8.50;;;;;14.28;100.00;102144.88;6314291;22;45644;-82
2022/05/27 04:45:49;;;;;;;;;10.50;8.75;;;;;14.28;100.00;102146.69;6311346;22;44689;-84
2022/05/27 04:48:17;;;;;;;;;13.00;8.75;;;;;14.23;100.00;102152.28;6309293;22;44721;-83
2022/05/27 04:50:43;;;;;;;;;4.80;2.80;;;;;14.20;100.00;102147.13;6310407;22;44698;-84
2022/05/27 04:53:09;;;;;;;;;8.00;8.00;;;;;14.20;100.00;102151.63;6287658;22;46981;-84
2022/05/27 04:55:37;;;;;;;;;10.80;8.80;;;;;14.16;100.00;102145.56;6294703;22;44692;-84
2022/05/27 04:58:04;;;;;;;;;17.80;14.00;;;;;14.09;100.00;102160.28;6319469;22;44957;-85
2022/05/27 05:00:35;;;;;;;;;8.50;8.50;;;;;14.09;100.00;102149.59;6307925;22;44839;-82
2022/05/27 05:03:00;;;;;;;;;9.00;9.00;;;;;14.05;100.00;102153.38;6306867;22;45394;-84
2022/05/27 05:05:29;;;;;;;;;13.75;12.00;;;;;14.09;100.00;102160.28;6313021;22;45137;-82
2022/05/27 05:07:59;;;;;;;;;12.80;11.60;;;;;14.12;100.00;102152.09;6313804;22;45265;-82
2022/05/27 05:10:25;;;;;;;;;10.80;9.80;;;;;14.19;100.00;102156.09;6313266;22;44701;-83
2022/05/27 05:12:51;;;;;;;;;20.25;16.25;;;;;14.15;100.00;102147.41;6285865;22;44937;-83
2022/05/27 05:15:18;;;;;;;;;10.25;10.25;;;;;14.08;100.00;102154.06;6310363;22;45201;-83
2022/05/27 05:17:44;;;;;;;;;8.40;7.20;;;;;14.08;100.00;102158.56;6280842;22;45263;-85
2022/05/27 05:20:14;;;;;;;;;10.75;10.75;;;;;14.12;100.00;102163.63;6308216;22;44777;-84
2022/05/27 05:22:40;;;;;;;;;18.60;15.60;;;;;14.10;100.00;102149.47;6312183;22;45091;-83
2022/05/27 05:25:07;;;;;;;;;18.50;11.75;;;;;14.01;100.00;102166.06;6317448;22;45143;-84
2022/05/27 05:27:34;;;;;;;;;14.60;8.60;;;;;14.03;100.00;102157.97;6316598;22;44720;-82
2022/05/27 05:30:00;;;;;;;;;13.75;12.00;;;;;13.95;100.00;102161.06;6310907;22;45450;-83
2022/05/27 05:32:27;;;;;;;;;15.75;14.50;;;;;14.00;100.00;102159.00;6305973;22;45190;-84
2022/05/27 05:34:54;;;;;;;;;11.20;11.20;;;;;14.04;100.00;102163.22;6305893;22;44831;-84
2022/05/27 05:37:19;;;;;;;;;16.40;11.20;;;;;14.02;100.00;102159.78;6312359;22;45125;-82
2022/05/27 05:39:45;;;;;;;;;12.00;9.75;;;;;14.08;100.00;102158.56;6310656;22;45308;-84
2022/05/27 05:42:10;;;;;;;;;17.50;16.50;;;;;14.07;100.00;102162.16;6308696;22;45135;-84
2022/05/27 05:44:36;;;;;;;;;7.25;6.75;;;;;14.06;100.00;102163.09;6309384;22;44630;-83
2022/05/27 05:47:02;;;;;;;;;14.00;13.00;;;;;14.04;100.00;102162.34;6309921;22;45206;-83
2022/05/27 05:49:28;;;;;;;;;13.50;12.50;;;;;13.99;100.00;102162.63;6308456;22;45221;-83
2022/05/27 05:51:55;;;;;;;;;12.00;11.50;;;;;14.04;100.00;102160.53;6308863;22;44883;-83
2022/05/27 05:54:23;;;;;;;;;7.60;6.60;;;;;14.07;100.00;102163.03;6314590;22;45346;-84
2022/05/27 05:56:49;;;;;;;;;15.20;13.20;;;;;14.07;100.00;102163.03;6310582;22;44715;-84
2022/05/27 05:59:17;;;;;;;;;20.75;15.00;;;;;14.02;100.00;102169.59;6284171;22;45128;-83
2022/05/27 06:01:43;;;;;;;;;16.60;11.60;;;;;14.02;100.00;102159.78;6314432;22;45290;-85
2022/05/27 06:04:09;;;;;;;;;17.25;16.00;;;;;14.04;100.00;102170.38;6314301;22;45007;-84
2022/05/27 06:06:35;;;;;;;;;12.25;11.50;;;;;14.05;100.00;102172.09;6287211;22;44753;-84
2022/05/27 06:09:01;;;;;;;;;21.50;18.25;;;;;14.15;100.00;102170.59;6312204;22;45412;-83
2022/05/27 06:11:26;;;;;;;;;17.50;14.75;;;;;14.09;100.00;102163.81;6312419;22;45342;-83
2022/05/27 06:13:52;;;;;;;;;16.00;16.00;;;;;14.08;100.00;102159.41;6311559;22;44922;-84
2022/05/27 06:16:17;;;;;;;;;16.75;14.75;;;;;13.96;100.00;102176.16;6307930;22;45301;-84
2022/05/27 06:18:43;;;;;;;;;21.00;20.00;;;;;13.91;100.00;102169.34;6307386;22;44880;-84
2022/05/27 06:21:09;;;;;;;;;13.75;7.50;;;;;13.90;100.00;102179.19;6283249;22;45250;-83
2022/05/27 06:23:34;;;;;;;;;12.75;11.50;;;;;13.90;100.00;102176.50;6318684;22;45175;-84
2022/05/27 06:26:18;;;;;;;;;17.00;12.25;;;;;13.92;100.00;102174.59;6311274;22;45116;-84
2022/05/27 06:34:23;;;;;;;;;4.00;4.00;;;;;14.09;100.00;102187.00;6307984;22;44729;-86
2022/05/27 06:36:57;;;;;;;;;7.20;6.80;;;;;14.01;100.00;102175.88;6306757;22;45328;-84
2022/05/27 06:39:24;;;;;;;;;5.80;5.40;;;;;13.97;100.00;102179.69;6309349;22;45239;-84
2022/05/27 06:41:50;;;;;;;;;10.20;6.00;;;;;13.97;100.00;102182.34;6316577;22;45138;-84
2022/05/27 06:44:17;;;;;;;;;7.40;4.20;;;;;13.92;100.00;102176.41;6315109;22;45285;-83
2022/05/27 06:46:42;;;;;;;;;3.00;3.00;;;;;13.93;100.00;102173.69;6309419;22;45277;-84
2022/05/27 06:49:08;;;;;;;;;12.75;6.75;;;;;13.97;100.00;102190.38;6298234;22;45290;-84
2022/05/27 06:51:38;;;;;;;;;3.25;3.00;;;;;14.00;100.00;102184.84;6311051;22;46807;-83
2022/05/27 06:54:05;;;;;;;;;4.00;2.80;;;;;14.02;100.00;102188.28;6346811;22;45276;-84
2022/05/27 06:56:31;;;;;;;;;6.60;4.80;;;;;13.99;100.00;102184.00;6341569;22;45076;-85
2022/05/27 06:58:56;;;;;;;;;2.25;2.25;;;;;14.07;100.00;102189.75;6348853;22;44743;-84
2022/05/27 07:01:22;;;;;;;;;8.50;6.50;;;;;14.19;100.00;102195.34;6341474;22;45214;-84
2022/05/27 07:03:47;;;;;;;;;8.00;5.00;;;;;14.02;100.00;102186.50;6341066;22;45207;-84
2022/05/27 07:06:13;;;;;;;;;7.50;5.75;;;;;13.88;100.00;102187.31;6345041;22;44786;-84
2022/05/27 07:08:39;;;;;;;;;8.80;8.20;;;;;13.91;100.00;102196.94;6318028;22;44792;-84
2022/05/27 07:11:05;;;;;;;;;9.50;5.75;;;;;13.98;100.00;102192.97;6341824;22;45216;-84
2022/05/27 07:13:31;;;;;;;;;10.40;10.40;;;;;13.96;100.00;102194.00;6315263;22;45269;-84
2022/05/27 07:15:57;;;;;;;;;8.20;7.40;;;;;13.87;100.00;102198.06;6339395;22;45330;-84
2022/05/27 07:18:23;;;;;;;;;13.25;8.75;;;;;13.97;100.00;102195.72;6337595;22;45245;-83
2022/05/27 07:20:49;;;;;;;;;8.25;5.75;;;;;13.96;100.00;102204.69;6343523;22;45236;-83
2022/05/27 07:23:14;;;;;;;;;13.60;10.80;;;;;14.03;100.00;102195.38;6345328;22;44625;-82
2022/05/27 07:25:40;;;;;;;;;12.00;8.00;;;;;14.03;100.00;102204.25;6342055;22;45146;-83
2022/05/27 07:28:07;;;;;;;;;11.75;10.25;;;;;14.16;100.00;102196.34;6339780;22;45178;-83
2022/05/27 07:30:33;;;;;;;;;12.00;12.00;;;;;14.17;100.00;102199.88;6337493;22;46255;-83
2022/05/27 07:32:59;;;;;;;;;14.40;11.00;;;;;14.29;100.00;102192.03;6340219;22;45386;-83
2022/05/27 07:35:25;;;;;;;;;18.50;11.50;;;;;14.56;100.00;102186.03;6344499;22;44648;-82
2022/05/27 07:37:50;;;;;;;;;10.00;8.25;;;;;14.85;100.00;102181.56;6338764;22;45327;-83
2022/05/27 07:40:16;;;;;;;;;16.25;8.75;;;;;15.00;100.00;102185.09;6309917;22;45448;-83
2022/05/27 07:42:42;;;;;;;;;11.20;8.40;;;;;15.33;100.00;102177.63;6341512;22;45300;-84
2022/05/27 07:45:09;;;;;;;;;9.50;8.50;;;;;15.60;100.00;102177.63;6316751;22;45363;-83
2022/05/27 07:47:35;;;;;;;;;7.80;7.80;;;;;15.86;100.00;102175.13;6340559;22;45512;-82
2022/05/27 07:50:00;;;;;;;;;7.50;6.50;;;;;16.06;100.00;102163.94;6342103;22;45049;-84
2022/05/27 07:52:26;;;;;;;;;10.25;6.50;;;;;16.25;100.00;102168.06;6342578;22;44640;-83
2022/05/27 07:54:51;;;;;;;;;8.25;6.50;;;;;16.29;100.00;102175.75;6345632;22;45217;-84
2022/05/27 07:57:23;;;;;;;;;11.25;7.50;;;;;16.17;100.00;102168.56;6310379;22;44791;-84
2022/05/27 07:59:54;;;;;;;;;6.60;6.60;;;;;16.32;100.00;102175.56;6338148;22;46000;-84
2022/05/27 08:02:23;;;;;;;;;7.80;7.20;;;;;16.43;100.00;102166.75;6338231;22;45384;-82
2022/05/27 08:04:49;;;;;;;;;8.00;7.80;;;;;16.40;100.00;102165.19;6338961;22;44812;-83
2022/05/27 08:07:15;;;;;;;;;7.25;7.25;;;;;16.52;100.00;102173.34;6337846;22;45094;-83
2022/05/27 08:09:40;;;;;;;;;9.00;7.75;;;;;16.63;100.00;102171.63;6339131;22;45336;-84
2022/05/27 08:12:06;;;;;;;;;7.50;5.75;;;;;16.60;100.00;102170.97;6317187;22;44692;-84
2022/05/27 08:14:32;;;;;;;;;7.00;5.50;;;;;16.68;100.00;102173.97;6345270;22;44729;-83
2022/05/27 08:16:58;;;;;;;;;5.50;5.50;;;;;16.60;100.00;102177.22;6344812;22;45159;-82
2022/05/27 08:19:24;;;;;;;;;6.00;6.00;;;;;16.66;100.00;102174.09;6346728;22;45423;-83
2022/05/27 08:21:49;;;;;;;;;7.60;7.60;;;;;16.64;100.00;102170.66;6343400;22;45399;-83
2022/05/27 08:24:16;;;;;;;;;7.75;7.25;;;;;16.54;100.00;102168.75;6350934;22;45228;-84
2022/05/27 08:26:42;;;;;;;;;8.40;7.20;;;;;16.66;100.00;102171.41;6321026;22;45359;-83
2022/05/27 08:29:10;;;;;;;;;6.50;6.50;;;;;16.55;100.00;102167.75;6344703;22;45020;-84
2022/05/27 08:31:38;;;;;;;;;7.40;5.80;;;;;16.42;100.00;102171.28;6341723;22;44641;-85
2022/05/27 08:39:33;;;;;;;;;5.20;2.00;;;;;16.29;100.00;102174.91;6340199;22;45131;-80
2022/05/27 08:42:08;;;;;;;;;6.75;5.25;;;;;16.27;100.00;102177.69;6335587;22;44661;-83
2022/05/27 08:44:52;;;;;;;;;8.60;7.40;;;;;16.19;100.00;102177.34;6337872;22;45495;-84
2022/05/27 08:47:42;;;;;;;;;5.00;5.00;;;;;16.14;100.00;102166.94;6339175;22;44712;-83
2022/05/27 08:50:12;;;;;;;;;6.60;6.20;;;;;16.19;100.00;102172.84;6341971;22;45284;-84
2022/05/27 08:52:40;;;;;;;;;9.40;7.80;;;;;16.22;100.00;102179.84;6346774;22;45310;-84
2022/05/27 08:59:26;;;;;;;;;7.20;5.80;;;;;16.13;100.00;102180.44;6347034;22;44717;-84
2022/05/27 09:00:41;;;;;;;;;6.80;5.40;;;;;16.10;100.00;102180.66;6339386;22;44818;-84
2022/05/27 09:03:10;;;;;;;;;6.00;6.00;;;;;16.02;100.00;102167.78;6339785;22;44708;-85
2022/05/27 09:05:53;;;;;;;;;11.00;8.20;;;;;15.83;100.00;102186.03;6341194;22;45245;-85
2022/05/27 09:08:23;;;;;;;;;2.60;2.60;;;;;15.72;100.00;102180.53;6346350;22;44788;-84
2022/05/27 09:10:58;;;;;;;;;6.20;5.60;;;;;15.53;100.00;102189.72;6338799;22;45263;-84
2022/05/27 09:13:46;;;;;;;;;4.60;4.60;;;;;15.47;100.00;102187.41;6339428;22;44591;-83
2022/05/27 09:16:37;;;;;;;;;8.20;8.00;;;;;15.54;100.00;102191.44;6343846;22;44672;-84
2022/05/27 09:19:37;;;;;;;;;6.60;5.20;;;;;15.57;100.00;102188.56;6348372;22;44940;-83
2022/05/27 09:22:23;;;;;;;;;7.40;6.40;;;;;15.67;100.00;102183.50;6349618;22;45296;-84
2022/05/27 09:25:11;;;;;;;;;8.40;6.40;;;;;15.82;100.00;102190.53;6321007;22;44824;-84
2022/05/27 09:27:47;;;;;;;;;7.80;6.40;;;;;15.92;100.00;102185.44;6347113;22;44768;-84
2022/05/27 09:30:17;;;;;;;;;8.20;5.60;;;;;15.95;100.00;102190.56;6344633;22;44661;-84
2022/05/27 09:32:56;;;;;;;;;6.40;6.40;;;;;15.84;100.00;102185.06;6343249;22;45168;-83
2022/05/27 09:35:32;;;;;;;;;3.60;3.60;;;;;15.84;100.00;102183.25;6342711;22;44706;-83
2022/05/27 09:38:01;;;;;;;;;6.00;6.00;;;;;15.83;100.00;102189.56;6340771;22;44818;-83
2022/05/27 09:40:46;;;;;;;;;9.00;8.80;;;;;15.89;100.00;102185.63;6343074;22;44743;-84
2022/05/27 09:43:30;;;;;;;;;2.80;2.80;;;;;16.04;100.00;102178.38;6343164;22;44935;-84
2022/05/27 09:45:58;;;;;;;;;4.00;4.00;;;;;16.33;100.00;102182.63;6315129;22;45256;-86
2022/05/27 09:48:25;;;;;;;;;5.00;3.20;;;;;16.42;100.00;102181.16;6347520;22;44660;-84
2022/05/27 09:50:51;;;;;;;;;5.60;5.60;;;;;16.43;100.00;102177.50;6348811;22;44765;-83
2022/05/27 09:53:32;;;;;;;;;4.20;3.60;;;;;16.73;100.00;102182.63;6347379;22;45270;-84
2022/05/27 09:56:07;;;;;;;;;4.00;4.00;;;;;16.88;100.00;102175.31;6350316;22;44609;-84
2022/05/27 09:58:37;;;;;;;;;4.80;4.80;;;;;16.98;100.00;102175.53;6316578;22;44634;-84
2022/05/27 10:01:17;;;;;;;;;5.80;5.80;;;;;16.71;100.00;102179.13;6344447;22;44801;-84
2022/05/27 10:03:43;;;;;;;;;4.80;4.80;;;;;16.63;100.00;102179.69;6347082;22;45626;-84
2022/05/27 10:06:17;;;;;;;;;4.25;4.25;;;;;16.72;100.00;102182.72;6345071;22;44840;-85
2022/05/27 10:08:58;;;;;;;;;5.20;4.60;;;;;17.11;100.00;102169.16;6346017;22;44732;-83
2022/05/27 10:11:50;;;;;;;;;3.00;3.00;;;;;17.35;100.00;102162.97;6345886;22;44814;-84
2022/05/27 10:14:27;;;;;;;;;7.00;6.40;;;;;17.25;100.00;102175.34;6326196;22;45269;-85
2022/05/27 10:17:08;;;;;;;;;3.80;3.80;;;;;17.34;100.00;102170.19;6345140;22;45246;-84
2022/05/27 10:19:35;;;;;;;;;8.80;6.20;;;;;17.31;100.00;102174.91;6344854;22;44597;-85
2022/05/27 10:22:04;;;;;;;;;5.40;5.00;;;;;17.30;100.00;102165.13;6347688;22;44665;-84
2022/05/27 10:24:33;;;;;;;;;7.40;5.60;;;;;17.44;100.00;102154.25;6326494;22;45205;-84
2022/05/27 10:27:06;;;;;;;;;5.20;5.20;;;;;17.78;100.00;102155.31;6353452;22;44748;-79
2022/05/27 10:29:34;;;;;;;;;6.80;5.20;;;;;18.01;100.00;102155.44;6345994;22;44641;-84
2022/05/27 10:32:01;;;;;;;;;5.00;5.00;;;;;17.84;100.00;102146.81;6340774;22;45265;-84
2022/05/27 10:34:46;;;;;;;;;6.60;4.60;;;;;18.31;100.00;102146.84;6343448;22;45173;-84
2022/05/27 10:37:23;;;;;;;;;3.80;3.00;;;;;18.74;100.00;102142.56;6343158;22;45234;-84
2022/05/27 10:40:12;;;;;;;;;3.00;3.00;;;;;19.21;100.00;102137.03;6339535;22;45369;-83
2022/05/27 10:43:03;;;;;;;;;6.80;6.00;;;;;19.44;100.00;102137.88;6341149;22;44653;-85
2022/05/27 10:45:38;;;;;;;;;4.00;3.00;;;;;19.88;100.00;102133.34;6314247;22;45266;-84
2022/05/27 10:48:11;;;;;;;;;5.40;3.60;;;;;19.57;100.00;102143.09;6341365;22;45358;-84
2022/05/27 10:50:43;;;;;;;;;5.40;3.00;;;;;19.43;100.00;102136.97;6342388;22;44740;-84
2022/05/27 10:53:42;;;;;;;;;7.00;6.00;;;;;19.58;100.00;102142.97;6349022;22;44751;-83
2022/05/27 11:02:04;;;;;;;;;3.00;3.00;;;;;19.37;100.00;102136.63;6351680;22;45237;-83
2022/05/27 11:02:55;;;;;;;;;4.80;4.00;;;;;19.19;100.00;102142.53;6182706;23;44725;-85
2022/05/27 11:05:42;;;;;;;;;4.20;4.20;;;;;19.00;100.00;102136.91;6184315;23;45294;-85
2022/05/27 11:08:43;;;;;;;;;2.40;2.40;;;;;19.00;100.00;102136.91;6185390;23;45236;-84
2022/05/27 11:11:20;;;;;;;;;5.00;5.00;;;;;19.01;100.00;102144.03;6182111;23;44791;-85
2022/05/27 11:17:36;;;;;;;;;5.00;5.00;;;;;19.24;100.00;102132.25;6180778;23;45434;-84
2022/05/27 11:20:28;;;;;;;;;4.20;4.20;;;;;19.27;100.00;102136.53;6169102;23;46163;-83
2022/05/27 11:23:35;;;;;;;;;4.00;3.60;;;;;19.23;100.00;102141.31;6183016;23;45394;-83
2022/05/27 11:26:14;;;;;;;;;5.60;5.60;;;;;18.95;100.00;102133.72;6185396;23;45157;-84
2022/05/27 11:29:17;;;;;;;;;3.40;3.40;;;;;18.80;100.00;102137.66;6189742;23;44795;-84
2022/05/27 11:32:07;;;;;;;;;18.00;11.40;;;;;18.90;100.00;102134.09;6187708;23;46169;-83
2022/05/27 11:34:43;;;;;;;;;2.80;2.80;;;;;18.84;100.00;102134.59;6204753;22;45300;-84
2022/05/27 11:37:40;;;;;;;;;6.00;3.00;;;;;18.70;100.00;102124.91;6344501;22;44705;-84
2022/05/27 11:40:13;;;;;;;;;4.20;4.00;;;;;18.58;100.00;102128.56;6338295;22;44644;-84
2022/05/27 11:43:01;;;;;;;;;3.80;3.80;;;;;18.50;100.00;102126.47;6338117;22;46275;-82
2022/05/27 11:45:29;;;;;;;;;5.00;4.00;;;;;18.59;100.00;102122.19;6337442;22;45486;-86
2022/05/27 11:48:15;;;;;;;;;4.00;4.00;;;;;18.75;100.00;102114.63;6337486;22;45353;-85
2022/05/27 11:51:11;;;;;;;;;4.20;4.20;;;;;18.98;100.00;102117.34;6338895;22;44807;-85
2022/05/27 11:53:45;;;;;;;;;4.40;4.40;;;;;19.05;100.00;102117.69;6338683;22;45116;-83
2022/05/27 11:56:25;;;;;;;;;5.00;4.40;;;;;18.83;100.00;102130.19;6347160;22;44708;-83
2022/05/27 11:59:06;;;;;;;;;6.20;4.60;;;;;18.94;100.00;102123.94;6341873;22;44763;-84
2022/05/27 12:01:43;;;;;;;;;5.20;4.20;;;;;18.83;100.00;102119.44;6343998;22;44955;-84
2022/05/27 12:04:28;;;;;;;;;4.80;4.80;;;;;18.95;100.00;102121.16;6313580;22;47216;-85
2022/05/27 12:07:28;;;;;;;;;6.00;5.00;;;;;19.14;100.00;102119.66;6337451;22;45227;-84